Tinker Air Force Base
KTIK : now visible

Airfield :











YOU CAN JOIN US ON...

 
LOGIN :

Register | Disclaimer

   EN    FR    IT 

 









Legend :    VFR   Marginal VFR   IFR   Intensive IFR   Very Intensive IFR
Visi :
Ceiling :
>= 8 km
>= 3000ft
5 to 8 km
1000 to 3000 ft
1500m to 5 km
500 to 1000 ft
800 to 1500m
200 to 500 ft
< 800m
< 200 ft
Symbols :   Thunderstorms  Fog  Heavy snow  Heavy precipitations  Wind > 20 kt







- Airport Elevation : 1291 ft


KTIK - Tinker Air Force Base

CURRENT METAR :
  • 210456Z AUTO 22015KT 10SM CLR 22/19 A3001 RMK AO2 SLP157 T02160193

EXPIRED METARs :
  • 210356Z AUTO 18013KT 10SM SCT140 BKN160 21/19 A2997 RMK AO2 PK WND 17027/0259 SLP145 T02110188
  • 210256Z AUTO 17017G23KT 10SM BKN120 21/20 A2997 RMK AO2 PK WND 16026/54 SLP145 60002 T02130197 53004

TAF AMD TAF KTIK
Valid from the 21 at 03:00 until the 22 at 07:00 UTC


210340Z 2103/2207 17012G18KT 9999 BKN100 510203 QNH2991INS
TEMPO 2104/2106 17015G25KT 8000 -TSRA BKN050CB
BECMG 2114/2115 18012G18KT 9999 OVC025 QNH2996INS
BECMG 2120/2121 19015G25KT 9999 BKN050 QNH2995INS
BECMG 2200/2201 17012KT 9999 BKN050 510205 QNH2998INS TX30/2121Z TN19/2110Z
No reported NOTAMs for that airfield.



MET'MAP, your aeronautical weather chart ! - Copyright ORBIFLY December 2007 - Disclaimer

ORBIFLY MET'MAP TEAM :

Programming & Development : Alexandra Zaïnal
Concept & Development : Baudouin d'Aumeries
Co-Development & Prog : Marc-Olivier Méhu
Technical & hardware support : Manuel Goepfert

Contact : metmap@orbifly.com




SOURCES & CREDITS :

   NOAA       Earth
Advisory